Terminal Aerodrome Forecast
Issued by NWS Charleston, WV

Current Version | Previous Version | Text Only | Print | Product List | Glossary Off
Versions: 1 2 3 4 5 6 7 8 9 10 11 12 13 14 15 16 17 18 19 20 21

604
FTUS41 KRLX 230244 AAA
TAFEKN
TAF AMD
KEKN 230244Z 2303/2324 00000KT P6SM SKC
     FM230500 00000KT 2SM BR SKC
     FM230700 00000KT 1/4SM FG OVC001
     FM231300 00000KT 1SM BR SCT001
     FM231400 00000KT P6SM SKC
     FM232300 VRB03KT P6SM SCT050=

USA.gov is the U.S. government's official web portal to all federal, state and local government web resources and services.